Time;durP1;ratioP1;P1;durP2;ratioP2;P2;SDS_P1;SDS_P2;PMS_P1;PMS_P2;Temp;Humidity;BMP_temperature;BMP_pressure;BME280_temperature;BME280_humidity;BME280_pressure;Samples;Min_cycle;Max_cycle;Signal;HPM_P1;HPM_P2
2023/04/14 00:00:16;;;;;;;9.70;9.40;;;6.20;99.90;;;;;;5107168;28;20237;-80
2023/04/14 00:02:43;;;;;;;9.80;9.50;;;6.20;99.90;;;;;;5107566;28;20217;-80
2023/04/14 00:05:11;;;;;;;9.80;9.50;;;6.20;99.90;;;;;;5107292;28;20291;-80
2023/04/14 00:07:39;;;;;;;9.80;9.50;;;6.10;99.90;;;;;;5107631;28;20287;-80
2023/04/14 00:10:07;;;;;;;9.80;9.50;;;6.10;99.90;;;;;;5108491;28;20285;-80
2023/04/14 00:12:36;;;;;;;9.30;9.00;;;6.20;99.90;;;;;;5107737;28;20309;-80
2023/04/14 00:15:05;;;;;;;9.40;9.10;;;6.20;99.90;;;;;;5108152;28;20225;-80
2023/04/14 00:17:32;;;;;;;9.20;8.90;;;6.20;99.90;;;;;;5107721;28;20225;-80
2023/04/14 00:20:00;;;;;;;8.90;8.70;;;6.10;99.90;;;;;;5107114;28;20231;-80
2023/04/14 00:22:27;;;;;;;9.40;9.10;;;6.10;99.90;;;;;;5107220;28;20352;-80
2023/04/14 00:24:55;;;;;;;9.30;9.00;;;6.10;99.90;;;;;;5107096;28;20237;-80
2023/04/14 00:27:22;;;;;;;9.47;9.17;;;6.10;99.90;;;;;;5107385;28;20230;-79
2023/04/14 00:29:51;;;;;;;9.40;9.10;;;6.00;99.90;;;;;;5107680;28;20225;-80
2023/04/14 00:32:19;;;;;;;9.47;9.17;;;6.00;99.90;;;;;;5104712;28;20229;-80
2023/04/14 00:34:46;;;;;;;9.97;9.67;;;6.00;99.90;;;;;;5105742;28;20229;-80
2023/04/14 00:37:15;;;;;;;9.70;9.40;;;5.80;99.90;;;;;;5107418;28;20233;-80
2023/04/14 00:39:43;;;;;;;10.00;9.70;;;5.80;99.90;;;;;;5108621;28;20241;-80
2023/04/14 00:42:10;;;;;;;9.87;9.57;;;5.80;99.90;;;;;;5108950;28;20236;-80
2023/04/14 00:44:37;;;;;;;9.87;9.57;;;5.90;99.90;;;;;;5107919;28;20300;-80
2023/04/14 00:47:06;;;;;;;10.00;9.70;;;5.90;99.90;;;;;;5110056;28;20253;-79
2023/04/14 00:49:34;;;;;;;10.03;9.73;;;5.90;99.90;;;;;;5120251;27;20218;-80
2023/04/14 00:52:01;;;;;;;10.10;9.80;;;6.00;99.90;;;;;;5116450;27;20209;-79
2023/04/14 00:54:30;;;;;;;9.80;9.50;;;6.00;99.90;;;;;;5119096;27;20252;-80
2023/04/14 00:56:57;;;;;;;10.00;9.70;;;6.00;99.90;;;;;;5120336;27;20228;-80
2023/04/14 00:59:27;;;;;;;9.80;9.50;;;6.00;99.90;;;;;;5119991;27;20232;-79
2023/04/14 01:01:57;;;;;;;9.80;9.50;;;6.00;99.90;;;;;;5120151;27;20286;-79
2023/04/14 01:04:26;;;;;;;9.90;9.60;;;6.00;99.90;;;;;;5119934;27;20240;-79
2023/04/14 01:06:54;;;;;;;10.00;9.70;;;6.10;99.90;;;;;;5120084;27;20245;-79
2023/04/14 01:09:21;;;;;;;10.00;9.70;;;6.10;99.90;;;;;;5118879;27;20226;-80
2023/04/14 01:12:01;;;;;;;9.93;9.63;;;6.00;99.90;;;;;;5120198;27;20225;-79
2023/04/14 01:14:41;;;;;;;9.80;9.50;;;6.00;99.90;;;;;;5120139;27;20221;-80
2023/04/14 01:17:20;;;;;;;9.90;9.60;;;6.00;99.90;;;;;;5120255;27;20217;-79
2023/04/14 01:20:17;;;;;;;9.97;9.67;;;6.00;99.90;;;;;;5119918;27;20271;-79
2023/04/14 01:22:57;;;;;;;10.00;9.70;;;5.90;99.90;;;;;;5117930;27;20205;-79
2023/04/14 01:26:15;;;;;;;10.10;9.80;;;5.90;99.90;;;;;;5118648;27;20217;-79
2023/04/14 01:29:17;;;;;;;9.90;9.60;;;5.90;99.90;;;;;;5119753;27;20247;-79
2023/04/14 01:31:49;;;;;;;9.70;9.40;;;5.90;99.90;;;;;;5112730;28;20260;-80
2023/04/14 01:34:35;;;;;;;9.70;9.40;;;5.90;99.90;;;;;;5114168;27;20211;-80
2023/04/14 01:37:08;;;;;;;9.33;9.03;;;5.80;99.90;;;;;;5116029;27;20237;-80
2023/04/14 01:39:40;;;;;;;9.30;9.00;;;5.90;99.90;;;;;;5111337;28;20269;-80
2023/04/14 01:42:13;;;;;;;9.33;9.03;;;5.90;99.90;;;;;;5118556;28;20289;-79
2023/04/14 01:44:46;;;;;;;9.50;9.20;;;5.80;99.90;;;;;;5118113;27;20229;-80
2023/04/14 01:47:17;;;;;;;9.40;9.10;;;5.90;99.90;;;;;;5107426;28;20233;-80
2023/04/14 01:49:46;;;;;;;9.60;9.30;;;5.90;99.90;;;;;;5106006;28;20243;-80
2023/04/14 01:52:16;;;;;;;9.40;9.10;;;5.80;99.90;;;;;;5111095;28;20579;-80
2023/04/14 01:54:45;;;;;;;9.60;9.30;;;5.80;99.90;;;;;;5114973;28;20238;-80
2023/04/14 01:57:14;;;;;;;9.50;9.20;;;5.80;99.90;;;;;;5114326;28;20229;-80
2023/04/14 01:59:42;;;;;;;9.53;9.23;;;5.80;99.90;;;;;;5110811;28;20243;-80
2023/04/14 02:02:12;;;;;;;9.60;9.30;;;5.70;99.90;;;;;;5105961;28;20236;-80
2023/04/14 02:04:42;;;;;;;9.40;9.10;;;5.70;99.90;;;;;;5105018;28;20260;-80
2023/04/14 02:07:11;;;;;;;9.23;8.93;;;5.70;99.90;;;;;;5106025;28;20233;-80
2023/04/14 02:09:42;;;;;;;9.63;9.33;;;5.70;99.90;;;;;;5105454;28;20389;-80
2023/04/14 02:12:11;;;;;;;9.33;9.03;;;5.60;99.90;;;;;;5105827;28;20217;-80
2023/04/14 02:14:42;;;;;;;9.30;9.00;;;5.70;99.90;;;;;;5104887;28;20232;-80
2023/04/14 02:17:12;;;;;;;9.40;9.10;;;5.70;99.90;;;;;;5105535;28;20229;-80
2023/04/14 02:19:44;;;;;;;9.20;8.90;;;5.70;99.90;;;;;;5101123;28;20237;-80
2023/04/14 02:22:11;;;;;;;9.60;9.30;;;5.70;99.90;;;;;;5100591;28;20235;-80
2023/04/14 02:24:39;;;;;;;9.60;9.30;;;5.70;99.90;;;;;;5100415;28;21023;-80
2023/04/14 02:27:12;;;;;;;9.73;9.43;;;5.70;99.90;;;;;;5100802;28;20263;-80
2023/04/14 02:29:43;;;;;;;9.40;9.10;;;5.60;99.90;;;;;;5103245;28;20260;-80
2023/04/14 02:32:20;;;;;;;9.60;9.30;;;5.60;99.90;;;;;;5103487;28;20233;-80
2023/04/14 02:34:56;;;;;;;9.60;9.30;;;5.60;99.90;;;;;;5103601;28;20226;-80
2023/04/14 02:37:27;;;;;;;9.37;9.07;;;5.70;99.90;;;;;;5103317;28;20264;-80
2023/04/14 02:40:03;;;;;;;9.30;9.00;;;5.70;99.90;;;;;;5103857;28;20257;-80
2023/04/14 02:42:33;;;;;;;9.17;8.87;;;5.80;99.90;;;;;;5103546;28;20292;-80
2023/04/14 02:45:08;;;;;;;9.53;9.23;;;5.80;99.90;;;;;;5103341;28;20276;-80
2023/04/14 02:47:42;;;;;;;9.10;8.80;;;5.80;99.90;;;;;;5103754;28;20304;-80
2023/04/14 02:50:15;;;;;;;9.43;9.13;;;5.90;99.90;;;;;;5104376;28;20328;-80
2023/04/14 02:52:46;;;;;;;9.20;8.90;;;5.90;99.90;;;;;;5106728;28;20265;-80
2023/04/14 02:55:14;;;;;;;9.20;8.90;;;5.90;99.90;;;;;;5105994;28;20275;-80
2023/04/14 02:57:42;;;;;;;8.97;8.77;;;6.00;99.90;;;;;;5112277;28;20225;-80
2023/04/14 03:00:11;;;;;;;8.90;8.70;;;6.00;99.90;;;;;;5110313;28;20325;-80
2023/04/14 03:02:39;;;;;;;8.87;8.67;;;6.00;99.90;;;;;;5109293;28;20264;-80
2023/04/14 03:05:10;;;;;;;9.07;8.77;;;6.00;99.90;;;;;;5109166;28;20233;-80
2023/04/14 03:07:38;;;;;;;9.20;8.90;;;6.00;99.90;;;;;;5108190;28;20734;-80
2023/04/14 03:10:07;;;;;;;9.37;9.07;;;6.00;99.90;;;;;;5108070;28;20289;-80
2023/04/14 03:12:36;;;;;;;9.30;9.00;;;6.00;99.90;;;;;;5107791;28;20243;-80
2023/04/14 03:15:05;;;;;;;9.20;8.90;;;6.00;99.90;;;;;;5106840;28;20214;-80
2023/04/14 03:17:33;;;;;;;9.10;8.80;;;6.00;99.90;;;;;;5107206;28;20264;-80
2023/04/14 03:20:01;;;;;;;9.30;9.00;;;6.00;99.90;;;;;;5107066;28;20268;-80
2023/04/14 03:22:33;;;;;;;9.53;9.23;;;6.00;99.90;;;;;;5105016;28;20240;-80
2023/04/14 03:25:00;;;;;;;9.40;9.10;;;6.10;99.90;;;;;;5106432;28;20226;-80
2023/04/14 03:27:30;;;;;;;9.20;8.90;;;6.00;99.90;;;;;;5106758;28;20247;-81
2023/04/14 03:30:03;;;;;;;9.27;8.97;;;6.00;99.90;;;;;;5106694;28;20233;-80
2023/04/14 03:32:38;;;;;;;9.30;9.00;;;5.90;99.90;;;;;;5106746;28;20222;-80
2023/04/14 03:35:06;;;;;;;9.20;8.90;;;6.00;99.90;;;;;;5106137;28;20271;-80
2023/04/14 03:37:40;;;;;;;8.83;8.63;;;6.00;99.90;;;;;;5106445;28;20234;-80
2023/04/14 03:40:12;;;;;;;9.40;9.10;;;5.90;99.90;;;;;;5106543;28;20234;-80
2023/04/14 03:42:43;;;;;;;9.20;8.90;;;5.90;99.90;;;;;;5105928;28;20217;-80
2023/04/14 03:45:12;;;;;;;9.20;8.90;;;5.80;99.90;;;;;;5106605;28;20248;-80
2023/04/14 03:47:39;;;;;;;9.03;8.73;;;5.70;99.90;;;;;;5106185;28;20302;-80
2023/04/14 03:50:10;;;;;;;9.40;9.10;;;5.70;99.90;;;;;;5105857;28;20241;-80
2023/04/14 03:52:42;;;;;;;9.23;8.93;;;5.70;99.90;;;;;;5105695;28;20225;-80
2023/04/14 03:55:11;;;;;;;9.20;8.90;;;5.60;99.90;;;;;;5104812;28;20252;-80
2023/04/14 03:57:42;;;;;;;9.30;9.00;;;5.60;99.90;;;;;;5104768;28;20229;-80
2023/04/14 04:00:14;;;;;;;9.37;9.07;;;5.50;99.90;;;;;;5105218;28;20297;-80
2023/04/14 04:02:44;;;;;;;9.57;9.27;;;5.40;99.90;;;;;;5104090;28;20229;-80
2023/04/14 04:05:12;;;;;;;9.50;9.20;;;5.30;99.90;;;;;;5104576;28;20224;-80
2023/04/14 04:07:43;;;;;;;9.30;9.00;;;5.20;99.90;;;;;;5100234;28;20238;-80
2023/04/14 04:10:13;;;;;;;9.50;9.20;;;5.20;99.90;;;;;;5101425;28;20241;-81
2023/04/14 04:12:43;;;;;;;9.73;9.43;;;5.10;99.90;;;;;;5102408;28;20241;-80
2023/04/14 04:15:11;;;;;;;9.60;9.30;;;5.10;99.90;;;;;;5104121;28;20252;-80
2023/04/14 04:17:40;;;;;;;9.70;9.40;;;5.20;99.90;;;;;;5103039;28;20324;-80
2023/04/14 04:20:13;;;;;;;10.27;9.97;;;5.20;99.90;;;;;;5103417;28;20240;-80
2023/04/14 04:22:45;;;;;;;10.30;10.00;;;5.10;99.90;;;;;;5104285;28;20276;-80
2023/04/14 04:25:13;;;;;;;10.10;9.80;;;5.00;99.90;;;;;;5104045;28;20244;-80
2023/04/14 04:27:40;;;;;;;10.13;9.83;;;5.00;99.90;;;;;;5105056;28;20239;-80
2023/04/14 04:30:10;;;;;;;10.47;10.17;;;5.00;99.90;;;;;;5105048;28;20280;-80
2023/04/14 04:32:38;;;;;;;10.20;9.90;;;5.00;99.90;;;;;;5104802;28;20237;-80
2023/04/14 04:35:08;;;;;;;10.30;10.00;;;5.00;99.90;;;;;;5104756;28;20281;-80
2023/04/14 04:37:37;;;;;;;10.10;9.80;;;5.00;99.90;;;;;;5104676;28;20233;-80
2023/04/14 04:40:07;;;;;;;9.97;9.67;;;5.00;99.90;;;;;;5104809;28;20230;-80
2023/04/14 04:42:40;;;;;;;9.67;9.37;;;5.00;99.90;;;;;;5104593;28;20242;-80
2023/04/14 04:45:09;;;;;;;9.80;9.50;;;4.90;99.90;;;;;;5106778;28;20204;-80
2023/04/14 04:47:36;;;;;;;10.20;9.90;;;4.90;99.90;;;;;;5105844;28;20238;-80
2023/04/14 04:50:05;;;;;;;9.80;9.50;;;4.90;99.90;;;;;;5105996;28;20229;-80
2023/04/14 04:52:32;;;;;;;9.70;9.40;;;4.90;99.90;;;;;;5105635;28;20222;-80
2023/04/14 04:55:00;;;;;;;9.80;9.50;;;4.90;99.90;;;;;;5106004;28;20324;-80
2023/04/14 04:57:28;;;;;;;9.67;9.37;;;4.90;99.90;;;;;;5109470;28;20233;-80
2023/04/14 04:59:56;;;;;;;9.60;9.30;;;5.00;99.90;;;;;;5107646;28;20275;-80
2023/04/14 05:02:23;;;;;;;9.53;9.23;;;4.90;99.90;;;;;;5106241;28;20332;-80
2023/04/14 05:04:51;;;;;;;9.70;9.40;;;5.00;99.90;;;;;;5105605;28;20237;-80
2023/04/14 05:07:19;;;;;;;9.60;9.30;;;5.00;99.90;;;;;;5105168;28;20260;-80
2023/04/14 05:09:47;;;;;;;9.80;9.50;;;5.10;99.90;;;;;;5105225;28;20293;-80
2023/04/14 05:12:14;;;;;;;9.70;9.40;;;5.10;99.90;;;;;;5105471;28;20257;-80
2023/04/14 05:14:44;;;;;;;9.63;9.33;;;5.10;99.90;;;;;;5104572;28;20239;-81
2023/04/14 05:17:11;;;;;;;9.53;9.23;;;5.10;99.90;;;;;;5104924;28;20241;-80
2023/04/14 05:19:38;;;;;;;9.50;9.20;;;5.10;99.90;;;;;;5104608;28;20278;-80
2023/04/14 05:22:06;;;;;;;9.47;9.17;;;5.10;99.90;;;;;;5104673;28;20372;-80
2023/04/14 05:24:33;;;;;;;9.77;9.47;;;5.00;99.90;;;;;;5103961;28;20225;-80
2023/04/14 05:27:02;;;;;;;9.80;9.50;;;5.00;99.90;;;;;;5104508;28;20346;-80
2023/04/14 05:29:30;;;;;;;9.67;9.37;;;5.10;99.90;;;;;;5104159;28;20234;-80
2023/04/14 05:31:59;;;;;;;9.70;9.40;;;5.20;99.90;;;;;;5104791;28;20244;-80
2023/04/14 05:34:26;;;;;;;9.80;9.50;;;5.30;99.90;;;;;;5104035;28;20225;-80
2023/04/14 05:36:54;;;;;;;9.93;9.63;;;5.30;99.90;;;;;;5104597;28;20238;-80
2023/04/14 05:39:21;;;;;;;9.97;9.67;;;5.30;99.90;;;;;;5103452;28;20225;-80
2023/04/14 05:41:49;;;;;;;10.10;9.80;;;5.40;99.90;;;;;;5103337;28;20263;-80
2023/04/14 05:44:17;;;;;;;9.90;9.60;;;5.40;99.90;;;;;;5102872;28;20259;-80
2023/04/14 05:46:45;;;;;;;10.40;10.10;;;5.40;99.90;;;;;;5103531;28;20229;-80
2023/04/14 05:49:14;;;;;;;9.70;9.40;;;5.40;99.90;;;;;;5102005;28;20233;-80
2023/04/14 05:51:41;;;;;;;9.60;9.30;;;5.50;99.90;;;;;;5105961;28;20249;-80
2023/04/14 05:54:09;;;;;;;9.90;9.60;;;5.40;99.90;;;;;;5099862;28;20253;-80
2023/04/14 05:56:37;;;;;;;9.73;9.43;;;5.40;99.90;;;;;;5098907;28;20248;-80
2023/04/14 05:59:04;;;;;;;10.00;9.70;;;5.30;99.90;;;;;;5100249;28;20299;-80
2023/04/14 06:01:32;;;;;;;10.07;9.77;;;5.30;99.90;;;;;;5102559;28;20240;-80
2023/04/14 06:03:59;;;;;;;9.80;9.50;;;5.30;99.90;;;;;;5102460;28;20214;-80
2023/04/14 06:06:28;;;;;;;10.20;9.90;;;5.40;99.90;;;;;;5103366;28;20253;-80
2023/04/14 06:08:56;;;;;;;10.10;9.80;;;5.50;99.90;;;;;;5103615;28;20229;-80
2023/04/14 06:11:23;;;;;;;9.90;9.60;;;5.50;99.90;;;;;;5103254;28;20264;-80
2023/04/14 06:13:51;;;;;;;9.97;9.67;;;5.50;99.90;;;;;;5103452;28;20269;-80
2023/04/14 06:16:19;;;;;;;10.10;9.80;;;5.60;99.90;;;;;;5103570;28;20237;-80
2023/04/14 06:18:46;;;;;;;9.90;9.60;;;5.60;99.90;;;;;;5102772;28;20276;-80
2023/04/14 06:21:14;;;;;;;10.00;9.70;;;5.60;99.90;;;;;;5104089;28;20229;-79
2023/04/14 06:23:43;;;;;;;10.13;9.83;;;5.60;99.90;;;;;;5103239;28;20271;-80
2023/04/14 06:26:11;;;;;;;10.17;9.87;;;5.70;99.90;;;;;;5105419;28;20229;-80
2023/04/14 06:28:38;;;;;;;10.33;10.03;;;5.70;99.90;;;;;;5106973;28;20228;-80
2023/04/14 06:31:06;;;;;;;10.10;9.80;;;5.70;99.90;;;;;;5107107;28;20228;-80
2023/04/14 06:33:34;;;;;;;10.10;9.80;;;5.80;99.90;;;;;;5107238;28;20233;-80
2023/04/14 06:36:02;;;;;;;10.20;9.90;;;5.90;99.90;;;;;;5108793;28;20229;-80
2023/04/14 06:38:30;;;;;;;10.07;9.77;;;6.10;99.90;;;;;;5107949;28;20230;-80
2023/04/14 06:40:59;;;;;;;10.30;10.00;;;6.10;99.90;;;;;;5106976;28;20275;-80
2023/04/14 06:43:27;;;;;;;10.20;9.90;;;6.20;99.90;;;;;;5107085;28;20240;-80
2023/04/14 06:45:55;;;;;;;10.17;9.87;;;6.30;99.90;;;;;;5106872;28;20236;-80
2023/04/14 06:48:23;;;;;;;9.90;9.60;;;6.40;99.90;;;;;;5106365;28;20248;-80
2023/04/14 06:50:55;;;;;;;10.00;9.70;;;6.50;99.90;;;;;;5106640;28;20320;-80
2023/04/14 06:53:23;;;;;;;9.80;9.50;;;6.60;99.90;;;;;;5106274;28;20273;-80
2023/04/14 06:55:57;;;;;;;9.90;9.60;;;6.70;99.90;;;;;;5106587;28;20233;-80
2023/04/14 06:58:27;;;;;;;10.07;9.77;;;6.80;99.90;;;;;;5105456;28;20240;-80
2023/04/14 07:00:59;;;;;;;9.87;9.57;;;6.70;99.90;;;;;;5107010;28;20324;-80
2023/04/14 07:03:27;;;;;;;9.80;9.50;;;6.70;99.90;;;;;;5105961;28;20227;-80
2023/04/14 07:06:01;;;;;;;9.77;9.47;;;6.80;99.90;;;;;;5108551;28;20229;-80
2023/04/14 07:08:31;;;;;;;9.53;9.23;;;6.80;99.90;;;;;;5111786;28;20236;-80
2023/04/14 07:11:01;;;;;;;9.60;9.30;;;6.70;99.90;;;;;;5109479;28;20318;-80
2023/04/14 07:13:30;;;;;;;10.07;9.77;;;6.70;99.90;;;;;;5108981;28;20232;-80
2023/04/14 07:15:58;;;;;;;10.30;10.00;;;6.70;99.90;;;;;;5108121;28;20230;-80
2023/04/14 07:18:25;;;;;;;9.90;9.60;;;6.80;99.90;;;;;;5107992;28;20328;-81
2023/04/14 07:20:54;;;;;;;10.10;9.80;;;6.90;99.90;;;;;;5107735;28;20328;-80
2023/04/14 07:23:22;;;;;;;10.13;9.83;;;6.90;99.90;;;;;;5106918;28;20328;-80
2023/04/14 07:25:51;;;;;;;10.00;9.70;;;7.00;99.90;;;;;;5107329;28;20297;-80
2023/04/14 07:28:19;;;;;;;9.80;9.50;;;7.10;99.90;;;;;;5107517;28;20229;-80
2023/04/14 07:30:48;;;;;;;10.00;9.70;;;7.20;99.90;;;;;;5107071;28;20281;-80
2023/04/14 07:33:17;;;;;;;9.83;9.53;;;7.20;99.90;;;;;;5108151;28;20283;-80
2023/04/14 07:35:45;;;;;;;9.60;9.30;;;7.20;99.90;;;;;;5106846;28;20682;-80
2023/04/14 07:38:13;;;;;;;9.77;9.47;;;7.10;99.90;;;;;;5106416;28;20225;-80
2023/04/14 07:40:41;;;;;;;9.93;9.63;;;7.10;99.90;;;;;;5101151;28;20277;-80
2023/04/14 07:43:08;;;;;;;9.87;9.57;;;7.20;99.90;;;;;;5103684;28;20234;-80
2023/04/14 07:45:37;;;;;;;9.80;9.50;;;7.10;99.90;;;;;;5102495;28;20253;-80
2023/04/14 07:48:07;;;;;;;9.40;9.10;;;7.00;99.90;;;;;;5103499;28;20249;-80
2023/04/14 07:50:35;;;;;;;9.67;9.37;;;7.00;99.90;;;;;;5106133;28;20232;-80
2023/04/14 07:53:03;;;;;;;9.73;9.43;;;7.10;99.90;;;;;;5105638;28;20240;-80
2023/04/14 07:55:30;;;;;;;9.20;8.90;;;7.20;99.90;;;;;;5105701;28;20253;-80
2023/04/14 07:57:58;;;;;;;9.03;8.73;;;7.20;99.90;;;;;;5105302;28;20249;-80
2023/04/14 08:00:28;;;;;;;9.20;8.90;;;7.30;99.90;;;;;;5104772;28;20222;-80
2023/04/14 08:02:56;;;;;;;9.10;8.80;;;7.50;99.90;;;;;;5105267;28;20264;-80
2023/04/14 08:05:25;;;;;;;9.30;9.00;;;7.60;99.90;;;;;;5105832;28;20237;-80
2023/04/14 08:07:52;;;;;;;9.83;9.53;;;7.70;99.90;;;;;;5104907;28;20340;-80
2023/04/14 08:10:21;;;;;;;9.70;9.40;;;7.80;99.90;;;;;;5104820;28;20240;-80
2023/04/14 08:12:49;;;;;;;9.50;9.20;;;7.90;99.90;;;;;;5104841;28;20233;-80
2023/04/14 08:15:17;;;;;;;10.00;9.70;;;8.10;99.90;;;;;;5105572;28;20293;-80
2023/04/14 08:17:44;;;;;;;9.90;9.60;;;8.20;99.90;;;;;;5105933;28;20260;-80
2023/04/14 08:20:12;;;;;;;9.67;9.37;;;8.30;99.90;;;;;;5105357;28;20281;-80
2023/04/14 08:22:42;;;;;;;9.33;9.03;;;8.40;99.90;;;;;;5105192;28;20321;-80
2023/04/14 08:25:10;;;;;;;9.67;9.37;;;8.50;99.90;;;;;;5105276;28;20225;-80
2023/04/14 08:27:38;;;;;;;9.40;9.10;;;8.50;99.90;;;;;;5106914;28;20230;-80
2023/04/14 08:30:08;;;;;;;9.20;8.90;;;8.60;99.90;;;;;;5107233;28;20229;-80
2023/04/14 08:32:35;;;;;;;9.40;9.10;;;8.70;99.90;;;;;;5106293;28;20236;-80
2023/04/14 08:35:03;;;;;;;9.50;9.20;;;8.90;99.90;;;;;;5106958;28;20325;-80
2023/04/14 08:37:31;;;;;;;9.40;9.10;;;8.90;99.90;;;;;;5105769;28;20233;-80
2023/04/14 08:40:00;;;;;;;9.37;9.07;;;8.90;99.90;;;;;;5105389;28;20291;-80
2023/04/14 08:42:27;;;;;;;9.60;9.30;;;9.00;99.90;;;;;;5104457;28;20291;-80
2023/04/14 08:44:58;;;;;;;9.60;9.30;;;9.00;99.90;;;;;;5105230;28;20316;-79
2023/04/14 08:47:31;;;;;;;9.70;9.40;;;9.00;99.90;;;;;;5104922;28;20226;-80
2023/04/14 08:50:04;;;;;;;10.00;9.70;;;9.20;99.90;;;;;;5111827;28;20221;-80
2023/04/14 08:52:35;;;;;;;10.13;9.83;;;9.30;99.90;;;;;;5107686;28;20280;-80
2023/04/14 08:55:07;;;;;;;9.93;9.63;;;9.40;99.90;;;;;;5106053;28;20229;-80
2023/04/14 08:57:36;;;;;;;9.53;9.23;;;9.20;99.90;;;;;;5105617;28;20229;-80
2023/04/14 09:00:05;;;;;;;9.10;8.80;;;9.30;99.90;;;;;;5105581;28;20234;-80
2023/04/14 09:02:33;;;;;;;8.90;8.70;;;9.40;99.90;;;;;;5104510;28;20248;-80
2023/04/14 09:05:01;;;;;;;9.57;9.27;;;9.40;99.90;;;;;;5105379;28;20225;-80
2023/04/14 09:07:29;;;;;;;9.47;9.17;;;9.40;99.90;;;;;;5105316;28;20233;-80
2023/04/14 09:09:58;;;;;;;9.40;9.10;;;9.30;99.90;;;;;;5104816;28;20217;-80
2023/04/14 09:12:28;;;;;;;9.10;8.80;;;9.40;99.90;;;;;;5105047;28;20244;-80
2023/04/14 09:15:00;;;;;;;9.60;9.30;;;9.30;99.90;;;;;;5104815;28;20248;-80
2023/04/14 09:17:29;;;;;;;9.77;9.47;;;9.30;99.90;;;;;;5104761;28;20279;-80
2023/04/14 09:19:56;;;;;;;9.67;9.37;;;9.40;99.90;;;;;;5104226;28;20233;-80
2023/04/14 09:22:24;;;;;;;9.60;9.30;;;9.40;99.90;;;;;;5104897;28;20264;-80
2023/04/14 09:24:52;;;;;;;9.60;9.30;;;9.30;99.90;;;;;;5104404;28;20319;-80
2023/04/14 09:27:19;;;;;;;9.63;9.33;;;9.10;99.90;;;;;;5106753;27;20232;-80
2023/04/14 09:29:50;;;;;;;9.40;9.10;;;9.10;99.90;;;;;;5100136;28;20233;-80
2023/04/14 09:32:18;;;;;;;9.50;9.20;;;9.30;99.90;;;;;;5100755;28;20248;-80
2023/04/14 09:34:53;;;;;;;9.43;9.13;;;9.40;99.90;;;;;;5101244;28;20253;-80
2023/04/14 09:37:21;;;;;;;9.70;9.40;;;9.50;99.90;;;;;;5103165;28;20239;-80
2023/04/14 09:39:51;;;;;;;9.80;9.50;;;9.60;99.90;;;;;;5102864;28;20233;-80
2023/04/14 09:42:20;;;;;;;9.60;9.30;;;9.60;99.90;;;;;;5104181;28;20237;-80
2023/04/14 09:44:56;;;;;;;9.60;9.30;;;9.70;99.90;;;;;;5105404;28;20229;-80
2023/04/14 09:47:25;;;;;;;9.73;9.43;;;9.70;99.90;;;;;;5104849;28;20268;-80
2023/04/14 09:49:57;;;;;;;9.70;9.40;;;9.80;99.90;;;;;;5105504;28;20279;-80
2023/04/14 09:52:38;;;;;;;10.10;9.80;;;9.70;99.90;;;;;;5104678;28;20217;-80
2023/04/14 09:55:15;;;;;;;10.10;9.80;;;9.60;99.90;;;;;;5106341;28;20255;-80
2023/04/14 09:57:47;;;;;;;10.30;10.00;;;9.70;99.90;;;;;;5106041;28;20229;-80
2023/04/14 10:00:26;;;;;;;9.90;9.60;;;9.70;99.90;;;;;;5102319;28;20236;-81
2023/04/14 10:02:57;;;;;;;10.27;9.97;;;9.70;99.90;;;;;;5104035;28;20255;-80
2023/04/14 10:05:27;;;;;;;10.33;10.03;;;9.60;99.90;;;;;;5108748;28;20235;-81
2023/04/14 10:07:55;;;;;;;10.20;9.90;;;9.60;99.90;;;;;;5105771;28;20251;-78
2023/04/14 10:10:23;;;;;;;10.00;9.70;;;9.70;99.90;;;;;;5103325;28;20405;-78
2023/04/14 10:12:53;;;;;;;9.97;9.67;;;9.90;99.90;;;;;;5106681;28;20229;-79
2023/04/14 10:15:22;;;;;;;9.90;9.60;;;10.00;99.90;;;;;;5106496;28;20259;-78
2023/04/14 10:17:50;;;;;;;10.00;9.70;;;10.10;99.90;;;;;;5106195;28;20232;-79
2023/04/14 10:20:18;;;;;;;10.00;9.70;;;10.30;99.90;;;;;;5105950;28;20229;-78
2023/04/14 10:22:47;;;;;;;9.90;9.60;;;10.30;99.90;;;;;;5105498;28;20300;-79
2023/04/14 10:25:15;;;;;;;9.77;9.47;;;10.50;99.90;;;;;;5106157;28;20233;-79
2023/04/14 10:27:44;;;;;;;9.77;9.47;;;10.70;99.90;;;;;;5105799;28;20228;-79
2023/04/14 10:30:12;;;;;;;9.90;9.60;;;11.10;99.90;;;;;;5105843;28;20290;-78
2023/04/14 10:32:42;;;;;;;10.03;9.73;;;11.30;99.90;;;;;;5105721;28;20253;-78
2023/04/14 10:35:12;;;;;;;10.10;9.80;;;11.50;99.90;;;;;;5105908;28;20237;-78
2023/04/14 10:37:40;;;;;;;10.23;9.93;;;11.80;99.90;;;;;;5105031;28;20241;-79
2023/04/14 10:40:09;;;;;;;10.17;9.87;;;12.00;99.90;;;;;;5105787;28;20252;-79
2023/04/14 10:42:53;;;;;;;10.00;9.70;;;12.30;99.90;;;;;;5105424;28;20229;-79
2023/04/14 10:45:21;;;;;;;9.87;9.57;;;12.40;99.90;;;;;;5106503;28;20264;-79
2023/04/14 10:47:51;;;;;;;9.90;9.60;;;12.50;99.90;;;;;;5105877;28;20224;-79
2023/04/14 10:50:23;;;;;;;10.20;9.90;;;12.60;99.90;;;;;;5105616;28;20225;-79
2023/04/14 10:52:54;;;;;;;10.20;9.90;;;12.80;99.90;;;;;;5105805;28;20291;-80
2023/04/14 10:55:24;;;;;;;10.23;9.93;;;13.20;99.90;;;;;;5105719;28;20257;-79
2023/04/14 10:57:53;;;;;;;9.70;9.40;;;13.40;99.90;;;;;;5105124;28;20245;-79
2023/04/14 11:00:30;;;;;;;10.00;9.70;;;13.30;99.90;;;;;;5106037;28;20225;-79
2023/04/14 11:03:09;;;;;;;9.47;9.17;;;13.50;99.90;;;;;;5119218;28;20244;-79
2023/04/14 11:05:42;;;;;;;9.70;9.40;;;14.00;99.90;;;;;;5116127;28;20251;-78
2023/04/14 11:08:15;;;;;;;9.90;9.60;;;14.20;99.90;;;;;;5111482;28;20229;-79
2023/04/14 11:10:49;;;;;;;10.03;9.73;;;14.60;99.90;;;;;;5104556;28;20236;-79
2023/04/14 11:13:18;;;;;;;10.30;10.00;;;14.00;99.90;;;;;;5103589;28;20260;-79
2023/04/14 11:15:48;;;;;;;10.38;10.07;;;14.20;99.90;;;;;;5109848;28;20245;-79
2023/04/14 11:18:20;;;;;;;10.17;9.87;;;14.30;99.90;;;;;;5108977;28;20245;-79
2023/04/14 11:20:48;;;;;;;9.70;9.40;;;14.00;99.90;;;;;;5107236;28;20263;-79
2023/04/14 11:23:16;;;;;;;9.80;9.50;;;13.90;99.90;;;;;;5107828;28;20233;-79
2023/04/14 11:25:44;;;;;;;10.00;9.70;;;13.80;99.90;;;;;;5106163;28;20307;-79
2023/04/14 11:28:11;;;;;;;9.73;9.43;;;13.80;99.90;;;;;;5106949;28;20277;-79
2023/04/14 11:30:42;;;;;;;9.87;9.57;;;13.50;99.90;;;;;;5106373;28;20264;-79
2023/04/14 11:33:11;;;;;;;9.77;9.47;;;13.40;99.90;;;;;;5105524;28;20265;-79
2023/04/14 11:35:43;;;;;;;9.70;9.40;;;13.60;99.90;;;;;;5105811;28;20230;-79
2023/04/14 11:38:14;;;;;;;9.80;9.50;;;13.50;99.90;;;;;;5106132;28;20233;-79
2023/04/14 11:40:42;;;;;;;10.10;9.80;;;13.50;99.90;;;;;;5105670;28;20233;-79
2023/04/14 11:43:09;;;;;;;9.77;9.47;;;13.80;99.90;;;;;;5123510;22;20229;-83
2023/04/14 11:45:43;;;;;;;10.00;9.70;;;14.30;99.90;;;;;;5080420;28;20230;-83
2023/04/14 11:48:13;;;;;;;10.13;9.83;;;14.50;99.90;;;;;;5091934;28;20237;-83
2023/04/14 11:50:44;;;;;;;10.10;9.80;;;14.80;99.90;;;;;;5101199;28;20222;-83
2023/04/14 11:53:13;;;;;;;10.03;9.73;;;14.80;99.90;;;;;;5096130;28;20230;-83
2023/04/14 11:55:45;;;;;;;10.20;9.90;;;14.40;99.90;;;;;;5080217;28;21094;-83
2023/04/14 11:58:15;;;;;;;10.10;9.80;;;14.30;99.90;;;;;;5080633;28;20240;-83
2023/04/14 12:00:44;;;;;;;9.90;9.60;;;14.20;99.90;;;;;;5081719;28;20226;-81
2023/04/14 12:03:14;;;;;;;10.20;9.90;;;14.10;99.90;;;;;;5084971;28;20268;-81
2023/04/14 12:05:43;;;;;;;10.03;9.73;;;13.90;99.90;;;;;;5084613;28;20234;-81
2023/04/14 12:08:11;;;;;;;10.00;9.70;;;14.00;99.90;;;;;;5083571;28;20234;-81
2023/04/14 12:10:41;;;;;;;10.00;9.70;;;14.50;99.90;;;;;;5082068;28;20230;-81
2023/04/14 12:13:10;;;;;;;10.00;9.70;;;14.50;99.90;;;;;;5081532;28;20234;-81
2023/04/14 12:15:40;;;;;;;10.03;9.73;;;14.30;99.90;;;;;;5082098;28;20226;-82
2023/04/14 12:18:09;;;;;;;10.00;9.70;;;14.10;99.90;;;;;;5082054;28;20269;-82
2023/04/14 12:20:45;;;;;;;9.83;9.53;;;14.10;99.90;;;;;;5081885;28;20292;-82
2023/04/14 12:23:13;;;;;;;9.80;9.50;;;14.10;99.90;;;;;;5080526;28;20360;-81
2023/04/14 12:25:41;;;;;;;9.87;9.57;;;14.20;99.90;;;;;;5081533;28;20380;-82
2023/04/14 12:28:09;;;;;;;9.80;9.50;;;14.00;99.90;;;;;;5080381;28;20269;-82
2023/04/14 12:30:42;;;;;;;9.70;9.40;;;13.90;99.90;;;;;;5079998;28;20237;-81
2023/04/14 12:33:11;;;;;;;9.90;9.60;;;13.80;99.90;;;;;;5078494;28;20231;-82
2023/04/14 12:35:40;;;;;;;10.00;9.70;;;13.70;99.90;;;;;;5080055;28;20234;-82
2023/04/14 12:38:15;;;;;;;9.87;9.57;;;13.70;99.90;;;;;;5079911;28;20230;-82
2023/04/14 12:40:46;;;;;;;9.77;9.47;;;13.90;99.90;;;;;;5081051;28;20242;-82
2023/04/14 12:43:15;;;;;;;9.80;9.50;;;14.10;99.90;;;;;;5079863;28;20245;-81
2023/04/14 12:45:44;;;;;;;9.60;9.30;;;14.20;99.90;;;;;;5081095;28;20738;-82
2023/04/14 12:48:14;;;;;;;9.83;9.53;;;14.00;99.90;;;;;;5080980;28;20264;-82
2023/04/14 12:50:45;;;;;;;9.53;9.23;;;14.10;99.90;;;;;;5086167;28;20289;-81
2023/04/14 12:53:28;;;;;;;10.00;9.70;;;14.30;99.90;;;;;;5096438;28;20226;-81
2023/04/14 12:56:07;;;;;;;9.90;9.60;;;14.10;99.90;;;;;;5098175;28;20233;-82
2023/04/14 12:58:36;;;;;;;10.00;9.70;;;13.80;99.90;;;;;;5097685;28;20250;-82
2023/04/14 13:01:06;;;;;;;9.90;9.60;;;14.00;99.90;;;;;;5091795;28;20225;-82
2023/04/14 13:03:54;;;;;;;10.03;9.73;;;14.00;99.90;;;;;;5082797;28;20230;-82